Date,TemperatureHighF,TemperatureAvgF,TemperatureLowF,DewpointHighF,DewpointAvgF,DewpointLowF,HumidityHigh,HumidityAvg,HumidityLow,PressureMaxIn,PressureMinIn,WindSpeedMaxMPH,WindSpeedAvgMPH,GustSpeedMaxMPH,PrecipitationSumIn
2013-9-1,95,70,48,47,43,36,80,46,15,0.00,40.00,5,2,9,0.00
2013-9-2,86,71,59,50,45,41,54,40,25,0.00,40.00,4,2,12,0.00
2013-9-3,78,68,59,55,50,47,67,54,39,0.00,40.00,4,2,9,0.00
2013-9-4,92,72,54,58,51,42,89,55,20,0.00,40.00,4,2,8,0.00
2013-9-5,80,70,62,67,55,48,89,60,46,0.00,40.00,5,2,14,0.04
2013-9-6,83,66,53,62,55,48,99,71,38,0.00,40.00,6,3,13,0.02
2013-9-7,84,66,50,52,46,-100,83,52,27,0.00,40.00,5,3,12,0.01
2013-9-8,67,57,48,56,47,41,94,70,52,0.00,40.00,4,2,9,0.09
2013-9-9,80,64,55,53,48,45,77,58,33,0.00,40.00,5,2,12,0.01
2013-9-10,85,65,49,51,46,40,94,56,22,0.00,40.00,4,2,9,0.00
2013-9-11,91,67,47,50,44,39,87,50,18,0.00,40.00,5,3,15,0.00
2013-9-12,90,72,59,50,44,39,59,40,20,0.00,40.00,4,2,9,0.00
2013-9-13,92,72,54,53,46,37,72,43,19,0.00,40.00,6,3,15,0.00
2013-9-14,82,68,56,54,46,-100,74,47,29,0.00,40.00,4,2,11,0.00
2013-9-15,89,72,56,50,46,42,64,43,25,0.00,40.00,6,3,19,0.00
2013-9-16,87,71,54,57,48,38,92,49,18,0.00,40.00,6,4,24,0.01
2013-9-17,69,57,46,53,47,41,95,69,45,0.00,40.00,4,2,11,0.01
2013-9-18,55,53,51,44,41,38,78,64,57,0.00,40.00,6,3,18,0.00
2013-9-19,70,54,41,45,38,31,89,60,27,0.00,40.00,6,2,13,0.00
2013-9-20,81,52,35,40,33,25,88,56,15,0.00,40.00,4,2,7,0.00
2013-9-21,75,56,42,40,34,-100,68,46,27,0.00,40.00,4,2,12,0.00
2013-9-22,60,52,45,51,46,39,96,80,53,0.00,40.00,5,2,11,0.00
2013-9-23,62,50,41,46,41,35,97,73,42,0.00,40.00,7,3,16,0.00
2013-9-24,51,47,44,47,44,39,98,88,74,0.00,40.00,4,2,10,0.00
2013-9-25,46,44,43,45,43,42,99,97,92,0.00,40.00,3,1,5,0.00
2013-9-26,53,44,35,46,38,30,98,81,46,0.00,40.00,4,2,10,0.09
2013-9-27,53,39,28,43,35,28,98,85,57,0.00,40.00,5,2,11,0.01
2013-9-28,63,51,42,44,39,-100,91,66,41,0.00,40.00,8,4,19,0.01
2013-9-29,56,49,43,45,40,35,87,70,55,0.00,40.00,8,5,18,0.20
2013-9-30,54,46,40,42,37,31,93,72,43,0.00,40.00,7,4,23,0.28